עמוד ראשי
METAR-TAF:

METAR-TAF

שדות תעופה :

סלוניקי, יוון

נמל התעופה הבינלאומי סלוניקי מקדוניה

קו רוחב: 40-31N, קו אורך: 022-58E, גובה: 8מטר

תצפית מזג אוויר נוכחית

הדו"ח נערך לפני 36דקות, בשעה 18:50 UTC
רוח 5קשר מכיוון מזרח/דרום-מזרח
טמפרטורת 16 צלסיוס
לחות 59%
לחץ 1015 hPa
ראות 10 קילומטר או יותר
ללא עננים שבסיסם נמוך מ 5000 רגל או קומולונימבוס

METAR: LGTS 211850Z 11005KT CAVOK 16/08 Q1015 NOSIG

זמן: 22:26 (19:26 UTC)

תחזית

הדו"ח נערך לפני 2 שעות ו 26דקות, בשעה 17:00 UTC
תחזית בתוקף מ 21 ב 18 UTC עד 22 ב 18 UTC
רוח 3קשר עם כיוונים משתנים
ראות 10 קילומטר או יותר
ללא עננים שבסיסם נמוך מ 5000 רגל או קומולונימבוס
הסתברות 30% :
זמנית מ -
22 ב 04 UTC עד 22 ב 06 UTC
ראות: 5000מטר
מעט עננים בגובה 800רגל
אד

TAF: LGTS 211700Z 2118/2218 VRB03KT CAVOK PROB30 TEMPO 2204/2206 5000 BR FEW008

תצפיות ותחזיות מזג אוויר לגבי יותר מ- 4,000 שדות תעופה ברחבי העולם. דוחות METAR ו- TAF.

התחנות הזמינות מסומנות בנקודות צהובות ואדומות על גבי המפה.

העבר את העכבר לנקודה הצבעונית על מנת לראות את שם התחנה.

לאחר מכן, לחץ כדי לראות את תוכן ואת תחזיות מזג האוויר.

כדי לשנות את המפה: לחץ על הכפתורים הירוקים עם הפלוס השחור כדי להתקרב; על הכפתור הירוק עם המקף כדי להתרחק; או בחיצים הירוקים למפות סמוכות.


METAR-TAF: